Pagina principală
METAR-TAF:

METAR-TAF

Aeroporturi :

Aeroportul Internațional Transilvania

Târgu Mureș, România

Latitudine: 46-32N, longitudine: 024-32E, elevație: 308 m

Observații meteo curente

Raportul a fost făcut în urmă cu 45 de minute, la 17:00 UTC
Vânt 1 kt din direcții variabile
Temperatură 12°C
Umiditate 54%
Presiune 1009 hPa
Vizibilitate de 10 km sau mai mult

METAR: LRTM 201700Z AUTO VRB01KT 9999 NCD 12/03 Q1009

Ora: 20:45 (17:45 UTC)

Prognoză

Raportul a fost făcut în urmă cu 3 ore și 45 de minute, la 14:00 UTC
Prognoză valabilă de la 20 ora 15 UTC la 21 ora 00 UTC
Vânt 4 kt din direcții variabile
Vizibilitate de 10 km sau mai mult
Nori împrăștiați la o înălțime de 3500 picior
Temporar
de la 20 ora 15 UTC la 20 ora 17 UTC
Nori împrăștiați la o înălțime de 3500 picior, Cumulonimbus.

TAF: LRTM 201400Z 2015/2100 VRB04KT 9999 SCT035 TEMPO 2015/2017 SCT035CB

Observații și prognoze meteo pentru peste 4.000 de aeroporturi (rapoarte METAR și TAF).

Stațiile disponibile sunt reprezentate pe hartă prin puncte galbene și roșii.

Țineți indicatorul mouse-ului pe punctul dorit pentru a vedea denumirea stației.

Apoi, faceți clic pentru a vedea observațiile și prognozele meteorologice.

Pentru a schimba harta: Pentru mărire, faceți clic pe butoanele verzi cu cruce neagră; pentru micșorare, pe butonul verde cu o liniuță; pentru hărți învecinate, pe săgețile verzi.


METAR-TAF: